sensor_id;sensor_type;location;lat;lon;timestamp;P1;durP1;ratioP1;P2;durP2;ratioP2
79677;SDS011;69145;45.544;10.214;2023-05-21T00:02:13;10.18;;;7.35;;
79677;SDS011;69145;45.544;10.214;2023-05-21T00:04:42;9.85;;;7.10;;
79677;SDS011;69145;45.544;10.214;2023-05-21T00:07:09;11.00;;;7.25;;
79677;SDS011;69145;45.544;10.214;2023-05-21T00:09:35;9.55;;;7.07;;
79677;SDS011;69145;45.544;10.214;2023-05-21T00:12:03;10.38;;;7.35;;
79677;SDS011;69145;45.544;10.214;2023-05-21T00:14:29;10.13;;;7.18;;
79677;SDS011;69145;45.544;10.214;2023-05-21T00:16:55;10.65;;;7.35;;
79677;SDS011;69145;45.544;10.214;2023-05-21T00:19:20;10.55;;;7.65;;
79677;SDS011;69145;45.544;10.214;2023-05-21T00:21:46;10.43;;;6.78;;
79677;SDS011;69145;45.544;10.214;2023-05-21T00:24:11;9.10;;;6.77;;
79677;SDS011;69145;45.544;10.214;2023-05-21T00:26:36;9.13;;;6.63;;
79677;SDS011;69145;45.544;10.214;2023-05-21T00:29:02;10.73;;;7.45;;
79677;SDS011;69145;45.544;10.214;2023-05-21T00:31:28;10.25;;;7.25;;
79677;SDS011;69145;45.544;10.214;2023-05-21T00:33:54;10.27;;;7.15;;
79677;SDS011;69145;45.544;10.214;2023-05-21T00:36:19;11.07;;;7.53;;
79677;SDS011;69145;45.544;10.214;2023-05-21T00:38:47;10.88;;;7.82;;
79677;SDS011;69145;45.544;10.214;2023-05-21T00:41:13;10.15;;;7.82;;
79677;SDS011;69145;45.544;10.214;2023-05-21T00:43:40;11.18;;;7.88;;
79677;SDS011;69145;45.544;10.214;2023-05-21T00:46:09;12.30;;;8.80;;
79677;SDS011;69145;45.544;10.214;2023-05-21T00:48:37;12.57;;;8.82;;
79677;SDS011;69145;45.544;10.214;2023-05-21T00:51:03;11.57;;;9.05;;
79677;SDS011;69145;45.544;10.214;2023-05-21T00:53:29;13.32;;;8.90;;
79677;SDS011;69145;45.544;10.214;2023-05-21T00:55:55;13.07;;;8.52;;
79677;SDS011;69145;45.544;10.214;2023-05-21T00:58:21;11.48;;;7.85;;
79677;SDS011;69145;45.544;10.214;2023-05-21T01:00:47;12.10;;;8.57;;
79677;SDS011;69145;45.544;10.214;2023-05-21T01:03:13;13.27;;;9.18;;
79677;SDS011;69145;45.544;10.214;2023-05-21T01:05:38;11.80;;;8.18;;
79677;SDS011;69145;45.544;10.214;2023-05-21T01:08:04;12.80;;;8.77;;
79677;SDS011;69145;45.544;10.214;2023-05-21T01:10:31;13.35;;;9.05;;
79677;SDS011;69145;45.544;10.214;2023-05-21T01:12:57;13.88;;;9.82;;
79677;SDS011;69145;45.544;10.214;2023-05-21T01:15:23;12.48;;;8.63;;
79677;SDS011;69145;45.544;10.214;2023-05-21T01:17:50;14.93;;;8.93;;
79677;SDS011;69145;45.544;10.214;2023-05-21T01:20:15;13.65;;;10.05;;
79677;SDS011;69145;45.544;10.214;2023-05-21T01:25:18;11.60;;;8.95;;
79677;SDS011;69145;45.544;10.214;2023-05-21T01:27:44;14.32;;;9.02;;
79677;SDS011;69145;45.544;10.214;2023-05-21T01:30:10;12.85;;;9.57;;
79677;SDS011;69145;45.544;10.214;2023-05-21T01:35:43;13.23;;;9.32;;
79677;SDS011;69145;45.544;10.214;2023-05-21T01:38:16;13.18;;;9.43;;
79677;SDS011;69145;45.544;10.214;2023-05-21T01:40:55;12.82;;;9.20;;
79677;SDS011;69145;45.544;10.214;2023-05-21T01:43:27;15.25;;;10.07;;
79677;SDS011;69145;45.544;10.214;2023-05-21T01:45:55;14.50;;;10.05;;
79677;SDS011;69145;45.544;10.214;2023-05-21T01:48:23;15.77;;;10.13;;
79677;SDS011;69145;45.544;10.214;2023-05-21T01:50:51;14.65;;;10.20;;
79677;SDS011;69145;45.544;10.214;2023-05-21T01:53:19;11.90;;;9.40;;
79677;SDS011;69145;45.544;10.214;2023-05-21T01:55:45;15.10;;;10.38;;
79677;SDS011;69145;45.544;10.214;2023-05-21T01:58:10;13.43;;;9.68;;
79677;SDS011;69145;45.544;10.214;2023-05-21T02:00:36;13.88;;;9.98;;
79677;SDS011;69145;45.544;10.214;2023-05-21T02:03:04;14.07;;;9.93;;
79677;SDS011;69145;45.544;10.214;2023-05-21T02:05:29;12.35;;;9.02;;
79677;SDS011;69145;45.544;10.214;2023-05-21T02:07:55;14.07;;;9.43;;
79677;SDS011;69145;45.544;10.214;2023-05-21T02:10:21;13.88;;;10.77;;
79677;SDS011;69145;45.544;10.214;2023-05-21T02:12:50;13.20;;;9.40;;
79677;SDS011;69145;45.544;10.214;2023-05-21T02:15:16;15.50;;;9.95;;
79677;SDS011;69145;45.544;10.214;2023-05-21T02:17:44;14.65;;;9.85;;
79677;SDS011;69145;45.544;10.214;2023-05-21T02:20:10;14.40;;;9.30;;
79677;SDS011;69145;45.544;10.214;2023-05-21T02:22:41;14.57;;;9.30;;
79677;SDS011;69145;45.544;10.214;2023-05-21T02:25:09;13.93;;;9.65;;
79677;SDS011;69145;45.544;10.214;2023-05-21T02:27:35;13.85;;;9.73;;
79677;SDS011;69145;45.544;10.214;2023-05-21T02:30:04;14.00;;;9.38;;
79677;SDS011;69145;45.544;10.214;2023-05-21T02:32:32;13.13;;;10.18;;
79677;SDS011;69145;45.544;10.214;2023-05-21T02:34:58;12.85;;;9.88;;
79677;SDS011;69145;45.544;10.214;2023-05-21T02:37:24;14.00;;;9.68;;
79677;SDS011;69145;45.544;10.214;2023-05-21T02:39:51;14.48;;;10.05;;
79677;SDS011;69145;45.544;10.214;2023-05-21T02:42:22;13.82;;;9.73;;
79677;SDS011;69145;45.544;10.214;2023-05-21T02:44:48;12.15;;;9.63;;
79677;SDS011;69145;45.544;10.214;2023-05-21T02:47:14;12.48;;;9.55;;
79677;SDS011;69145;45.544;10.214;2023-05-21T02:49:40;13.05;;;9.38;;
79677;SDS011;69145;45.544;10.214;2023-05-21T02:52:05;15.67;;;10.50;;
79677;SDS011;69145;45.544;10.214;2023-05-21T02:54:31;13.65;;;9.90;;
79677;SDS011;69145;45.544;10.214;2023-05-21T02:56:56;14.68;;;9.55;;
79677;SDS011;69145;45.544;10.214;2023-05-21T02:59:22;13.40;;;9.85;;
79677;SDS011;69145;45.544;10.214;2023-05-21T03:01:48;14.32;;;9.45;;
79677;SDS011;69145;45.544;10.214;2023-05-21T03:04:13;13.73;;;9.13;;
79677;SDS011;69145;45.544;10.214;2023-05-21T03:06:39;15.88;;;10.98;;
79677;SDS011;69145;45.544;10.214;2023-05-21T03:09:04;12.93;;;9.23;;
79677;SDS011;69145;45.544;10.214;2023-05-21T03:11:30;14.13;;;9.93;;
79677;SDS011;69145;45.544;10.214;2023-05-21T03:13:55;14.93;;;10.40;;
79677;SDS011;69145;45.544;10.214;2023-05-21T03:16:21;14.48;;;9.95;;
79677;SDS011;69145;45.544;10.214;2023-05-21T03:18:46;13.03;;;9.23;;
79677;SDS011;69145;45.544;10.214;2023-05-21T03:21:12;12.50;;;9.27;;
79677;SDS011;69145;45.544;10.214;2023-05-21T03:23:39;11.98;;;8.65;;
79677;SDS011;69145;45.544;10.214;2023-05-21T03:26:05;15.00;;;9.57;;
79677;SDS011;69145;45.544;10.214;2023-05-21T03:28:31;13.30;;;9.27;;
79677;SDS011;69145;45.544;10.214;2023-05-21T03:30:57;13.93;;;9.57;;
79677;SDS011;69145;45.544;10.214;2023-05-21T03:33:22;13.43;;;8.60;;
79677;SDS011;69145;45.544;10.214;2023-05-21T03:35:48;12.07;;;8.90;;
79677;SDS011;69145;45.544;10.214;2023-05-21T03:38:14;11.88;;;8.32;;
79677;SDS011;69145;45.544;10.214;2023-05-21T03:40:39;12.63;;;8.90;;
79677;SDS011;69145;45.544;10.214;2023-05-21T03:43:05;13.33;;;8.50;;
79677;SDS011;69145;45.544;10.214;2023-05-21T03:45:30;11.65;;;8.15;;
79677;SDS011;69145;45.544;10.214;2023-05-21T03:47:56;11.98;;;8.05;;
79677;SDS011;69145;45.544;10.214;2023-05-21T03:50:21;10.43;;;7.75;;
79677;SDS011;69145;45.544;10.214;2023-05-21T03:52:46;12.53;;;8.40;;
79677;SDS011;69145;45.544;10.214;2023-05-21T03:55:12;12.97;;;7.93;;
79677;SDS011;69145;45.544;10.214;2023-05-21T03:57:37;11.25;;;7.93;;
79677;SDS011;69145;45.544;10.214;2023-05-21T04:00:03;11.88;;;8.52;;
79677;SDS011;69145;45.544;10.214;2023-05-21T04:02:30;11.68;;;7.68;;
79677;SDS011;69145;45.544;10.214;2023-05-21T04:04:56;10.68;;;7.82;;
79677;SDS011;69145;45.544;10.214;2023-05-21T04:07:21;10.43;;;7.15;;
79677;SDS011;69145;45.544;10.214;2023-05-21T04:09:46;11.25;;;7.57;;
79677;SDS011;69145;45.544;10.214;2023-05-21T04:12:12;11.38;;;7.88;;
79677;SDS011;69145;45.544;10.214;2023-05-21T04:14:40;10.73;;;7.60;;
79677;SDS011;69145;45.544;10.214;2023-05-21T04:17:08;11.20;;;7.13;;
79677;SDS011;69145;45.544;10.214;2023-05-21T04:19:36;9.52;;;7.35;;
79677;SDS011;69145;45.544;10.214;2023-05-21T04:22:06;9.68;;;7.57;;
79677;SDS011;69145;45.544;10.214;2023-05-21T04:24:34;12.35;;;8.52;;
79677;SDS011;69145;45.544;10.214;2023-05-21T04:27:02;10.60;;;7.53;;
79677;SDS011;69145;45.544;10.214;2023-05-21T04:29:27;10.18;;;7.32;;
79677;SDS011;69145;45.544;10.214;2023-05-21T04:31:53;9.77;;;7.43;;
79677;SDS011;69145;45.544;10.214;2023-05-21T04:34:19;10.18;;;7.57;;
79677;SDS011;69145;45.544;10.214;2023-05-21T04:36:45;10.50;;;7.47;;
79677;SDS011;69145;45.544;10.214;2023-05-21T04:39:14;10.48;;;7.03;;
79677;SDS011;69145;45.544;10.214;2023-05-21T04:41:40;11.13;;;7.68;;
79677;SDS011;69145;45.544;10.214;2023-05-21T04:44:06;10.13;;;7.20;;
79677;SDS011;69145;45.544;10.214;2023-05-21T04:46:32;10.20;;;7.15;;
79677;SDS011;69145;45.544;10.214;2023-05-21T04:48:58;10.68;;;7.78;;
79677;SDS011;69145;45.544;10.214;2023-05-21T04:51:27;9.73;;;7.32;;
79677;SDS011;69145;45.544;10.214;2023-05-21T04:53:53;8.77;;;6.63;;
79677;SDS011;69145;45.544;10.214;2023-05-21T04:56:18;10.63;;;7.97;;
79677;SDS011;69145;45.544;10.214;2023-05-21T04:58:45;10.13;;;7.53;;
79677;SDS011;69145;45.544;10.214;2023-05-21T05:01:12;10.10;;;7.03;;
79677;SDS011;69145;45.544;10.214;2023-05-21T05:03:38;9.93;;;7.28;;
79677;SDS011;69145;45.544;10.214;2023-05-21T05:06:04;10.70;;;7.38;;
79677;SDS011;69145;45.544;10.214;2023-05-21T05:08:32;10.50;;;7.72;;
79677;SDS011;69145;45.544;10.214;2023-05-21T05:10:58;9.95;;;6.88;;
79677;SDS011;69145;45.544;10.214;2023-05-21T05:13:23;9.98;;;7.60;;
79677;SDS011;69145;45.544;10.214;2023-05-21T05:15:48;10.17;;;7.30;;
79677;SDS011;69145;45.544;10.214;2023-05-21T05:18:14;8.63;;;6.53;;
79677;SDS011;69145;45.544;10.214;2023-05-21T05:20:42;9.82;;;6.95;;
79677;SDS011;69145;45.544;10.214;2023-05-21T05:23:07;10.18;;;7.65;;
79677;SDS011;69145;45.544;10.214;2023-05-21T05:25:33;10.77;;;7.27;;
79677;SDS011;69145;45.544;10.214;2023-05-21T05:27:58;10.77;;;7.40;;
79677;SDS011;69145;45.544;10.214;2023-05-21T05:30:23;10.10;;;7.05;;
79677;SDS011;69145;45.544;10.214;2023-05-21T05:32:49;10.53;;;7.47;;
79677;SDS011;69145;45.544;10.214;2023-05-21T05:35:14;8.53;;;6.83;;
79677;SDS011;69145;45.544;10.214;2023-05-21T05:37:39;9.83;;;7.20;;
79677;SDS011;69145;45.544;10.214;2023-05-21T05:40:05;9.30;;;7.03;;
79677;SDS011;69145;45.544;10.214;2023-05-21T05:42:32;9.90;;;7.45;;
79677;SDS011;69145;45.544;10.214;2023-05-21T05:44:57;10.23;;;6.55;;
79677;SDS011;69145;45.544;10.214;2023-05-21T05:47:23;9.45;;;7.25;;
79677;SDS011;69145;45.544;10.214;2023-05-21T05:49:48;9.88;;;6.75;;
79677;SDS011;69145;45.544;10.214;2023-05-21T05:52:14;9.30;;;7.00;;
79677;SDS011;69145;45.544;10.214;2023-05-21T05:54:39;8.93;;;7.25;;
79677;SDS011;69145;45.544;10.214;2023-05-21T05:57:05;11.88;;;7.28;;
79677;SDS011;69145;45.544;10.214;2023-05-21T05:59:31;11.43;;;7.28;;
79677;SDS011;69145;45.544;10.214;2023-05-21T06:01:59;9.88;;;7.50;;
79677;SDS011;69145;45.544;10.214;2023-05-21T06:04:25;10.85;;;7.30;;
79677;SDS011;69145;45.544;10.214;2023-05-21T06:06:54;12.05;;;7.20;;
79677;SDS011;69145;45.544;10.214;2023-05-21T06:09:25;10.00;;;7.45;;
79677;SDS011;69145;45.544;10.214;2023-05-21T06:11:56;10.95;;;8.02;;
79677;SDS011;69145;45.544;10.214;2023-05-21T06:14:23;10.02;;;7.68;;
79677;SDS011;69145;45.544;10.214;2023-05-21T06:16:48;11.80;;;7.85;;
79677;SDS011;69145;45.544;10.214;2023-05-21T06:19:15;9.98;;;7.95;;
79677;SDS011;69145;45.544;10.214;2023-05-21T06:21:40;11.63;;;7.63;;
79677;SDS011;69145;45.544;10.214;2023-05-21T06:24:06;11.00;;;7.93;;
79677;SDS011;69145;45.544;10.214;2023-05-21T06:26:32;10.20;;;7.93;;
79677;SDS011;69145;45.544;10.214;2023-05-21T06:28:58;11.45;;;8.43;;
79677;SDS011;69145;45.544;10.214;2023-05-21T06:31:23;11.48;;;8.57;;
79677;SDS011;69145;45.544;10.214;2023-05-21T06:33:53;11.63;;;8.55;;
79677;SDS011;69145;45.544;10.214;2023-05-21T06:36:25;12.30;;;7.82;;
79677;SDS011;69145;45.544;10.214;2023-05-21T06:38:57;11.30;;;8.32;;
79677;SDS011;69145;45.544;10.214;2023-05-21T06:41:26;12.13;;;8.95;;
79677;SDS011;69145;45.544;10.214;2023-05-21T06:44:03;12.80;;;8.82;;
79677;SDS011;69145;45.544;10.214;2023-05-21T06:46:31;13.10;;;8.80;;
79677;SDS011;69145;45.544;10.214;2023-05-21T06:48:56;11.02;;;8.15;;
79677;SDS011;69145;45.544;10.214;2023-05-21T06:51:22;12.40;;;8.57;;
79677;SDS011;69145;45.544;10.214;2023-05-21T06:53:47;11.13;;;8.68;;
79677;SDS011;69145;45.544;10.214;2023-05-21T06:56:18;13.02;;;9.05;;
79677;SDS011;69145;45.544;10.214;2023-05-21T06:58:45;13.50;;;9.80;;
79677;SDS011;69145;45.544;10.214;2023-05-21T07:01:10;13.02;;;8.45;;
79677;SDS011;69145;45.544;10.214;2023-05-21T07:03:36;12.02;;;9.02;;
79677;SDS011;69145;45.544;10.214;2023-05-21T07:06:01;12.68;;;9.65;;
79677;SDS011;69145;45.544;10.214;2023-05-21T07:08:30;13.13;;;9.73;;
79677;SDS011;69145;45.544;10.214;2023-05-21T07:10:55;12.57;;;9.93;;
79677;SDS011;69145;45.544;10.214;2023-05-21T07:13:21;12.10;;;9.00;;
79677;SDS011;69145;45.544;10.214;2023-05-21T07:15:46;11.33;;;9.20;;
79677;SDS011;69145;45.544;10.214;2023-05-21T07:18:14;12.50;;;9.38;;
79677;SDS011;69145;45.544;10.214;2023-05-21T07:20:40;12.18;;;8.95;;
79677;SDS011;69145;45.544;10.214;2023-05-21T07:23:06;12.88;;;9.40;;
79677;SDS011;69145;45.544;10.214;2023-05-21T07:25:32;11.93;;;8.88;;
79677;SDS011;69145;45.544;10.214;2023-05-21T07:28:00;13.70;;;9.60;;
79677;SDS011;69145;45.544;10.214;2023-05-21T07:30:44;13.23;;;9.82;;
79677;SDS011;69145;45.544;10.214;2023-05-21T07:33:13;12.23;;;9.38;;
79677;SDS011;69145;45.544;10.214;2023-05-21T07:35:38;11.40;;;8.65;;
79677;SDS011;69145;45.544;10.214;2023-05-21T07:38:05;11.98;;;9.40;;
79677;SDS011;69145;45.544;10.214;2023-05-21T07:40:30;13.40;;;9.00;;
79677;SDS011;69145;45.544;10.214;2023-05-21T07:42:56;12.90;;;9.73;;
79677;SDS011;69145;45.544;10.214;2023-05-21T07:45:24;12.30;;;9.23;;
79677;SDS011;69145;45.544;10.214;2023-05-21T07:47:49;13.07;;;9.73;;
79677;SDS011;69145;45.544;10.214;2023-05-21T07:50:15;13.25;;;10.15;;
79677;SDS011;69145;45.544;10.214;2023-05-21T07:52:40;12.55;;;9.93;;
79677;SDS011;69145;45.544;10.214;2023-05-21T07:55:07;13.02;;;9.80;;
79677;SDS011;69145;45.544;10.214;2023-05-21T07:57:32;13.25;;;9.95;;
79677;SDS011;69145;45.544;10.214;2023-05-21T07:59:59;12.75;;;10.52;;
79677;SDS011;69145;45.544;10.214;2023-05-21T08:02:24;13.20;;;9.77;;
79677;SDS011;69145;45.544;10.214;2023-05-21T08:04:50;13.00;;;10.48;;
79677;SDS011;69145;45.544;10.214;2023-05-21T08:07:16;14.40;;;10.52;;
79677;SDS011;69145;45.544;10.214;2023-05-21T08:09:43;13.05;;;9.32;;
79677;SDS011;69145;45.544;10.214;2023-05-21T08:12:09;14.20;;;10.65;;
79677;SDS011;69145;45.544;10.214;2023-05-21T08:14:42;14.55;;;10.77;;
79677;SDS011;69145;45.544;10.214;2023-05-21T08:17:13;14.23;;;10.40;;
79677;SDS011;69145;45.544;10.214;2023-05-21T08:19:38;14.77;;;11.00;;
79677;SDS011;69145;45.544;10.214;2023-05-21T08:22:06;15.30;;;10.48;;
79677;SDS011;69145;45.544;10.214;2023-05-21T08:24:32;14.80;;;10.93;;
79677;SDS011;69145;45.544;10.214;2023-05-21T08:26:57;13.65;;;11.15;;
79677;SDS011;69145;45.544;10.214;2023-05-21T08:29:23;16.17;;;10.98;;
79677;SDS011;69145;45.544;10.214;2023-05-21T08:31:48;14.35;;;10.57;;
79677;SDS011;69145;45.544;10.214;2023-05-21T08:34:13;11.73;;;9.73;;
79677;SDS011;69145;45.544;10.214;2023-05-21T08:36:39;13.90;;;11.32;;
79677;SDS011;69145;45.544;10.214;2023-05-21T08:39:07;14.20;;;10.93;;
79677;SDS011;69145;45.544;10.214;2023-05-21T08:41:33;15.27;;;11.65;;
79677;SDS011;69145;45.544;10.214;2023-05-21T08:44:01;14.35;;;10.85;;
79677;SDS011;69145;45.544;10.214;2023-05-21T08:46:31;13.30;;;10.85;;
79677;SDS011;69145;45.544;10.214;2023-05-21T08:49:00;16.00;;;12.32;;
79677;SDS011;69145;45.544;10.214;2023-05-21T08:51:27;14.50;;;11.07;;
79677;SDS011;69145;45.544;10.214;2023-05-21T08:53:53;14.45;;;11.48;;
79677;SDS011;69145;45.544;10.214;2023-05-21T08:56:21;15.43;;;12.05;;
79677;SDS011;69145;45.544;10.214;2023-05-21T08:58:47;16.35;;;12.50;;
79677;SDS011;69145;45.544;10.214;2023-05-21T09:01:13;14.93;;;11.30;;
79677;SDS011;69145;45.544;10.214;2023-05-21T09:03:38;15.00;;;12.15;;
79677;SDS011;69145;45.544;10.214;2023-05-21T09:06:09;16.23;;;12.30;;
79677;SDS011;69145;45.544;10.214;2023-05-21T09:08:38;15.05;;;11.20;;
79677;SDS011;69145;45.544;10.214;2023-05-21T09:11:10;14.35;;;10.63;;
79677;SDS011;69145;45.544;10.214;2023-05-21T09:13:36;14.75;;;10.88;;
79677;SDS011;69145;45.544;10.214;2023-05-21T09:16:02;14.80;;;11.52;;
79677;SDS011;69145;45.544;10.214;2023-05-21T09:18:29;15.15;;;11.25;;
79677;SDS011;69145;45.544;10.214;2023-05-21T09:20:58;14.95;;;11.32;;
79677;SDS011;69145;45.544;10.214;2023-05-21T09:23:51;14.50;;;11.15;;
79677;SDS011;69145;45.544;10.214;2023-05-21T09:26:19;15.02;;;11.02;;
79677;SDS011;69145;45.544;10.214;2023-05-21T09:28:46;15.05;;;11.20;;
79677;SDS011;69145;45.544;10.214;2023-05-21T09:31:11;14.77;;;11.80;;
79677;SDS011;69145;45.544;10.214;2023-05-21T09:33:38;14.23;;;11.33;;
79677;SDS011;69145;45.544;10.214;2023-05-21T09:36:10;15.05;;;11.27;;
79677;SDS011;69145;45.544;10.214;2023-05-21T09:38:35;13.90;;;11.30;;
79677;SDS011;69145;45.544;10.214;2023-05-21T09:41:03;14.15;;;11.13;;
79677;SDS011;69145;45.544;10.214;2023-05-21T09:43:29;14.13;;;11.18;;
79677;SDS011;69145;45.544;10.214;2023-05-21T09:45:55;15.45;;;11.00;;
79677;SDS011;69145;45.544;10.214;2023-05-21T09:53:49;13.93;;;10.68;;
79677;SDS011;69145;45.544;10.214;2023-05-21T09:56:21;13.10;;;10.60;;
79677;SDS011;69145;45.544;10.214;2023-05-21T09:58:50;13.35;;;10.82;;
79677;SDS011;69145;45.544;10.214;2023-05-21T10:03:44;14.07;;;11.25;;
79677;SDS011;69145;45.544;10.214;2023-05-21T10:06:16;14.20;;;11.50;;
79677;SDS011;69145;45.544;10.214;2023-05-21T10:08:43;14.32;;;11.20;;
79677;SDS011;69145;45.544;10.214;2023-05-21T10:11:11;15.27;;;11.68;;
79677;SDS011;69145;45.544;10.214;2023-05-21T10:13:38;14.75;;;10.90;;
79677;SDS011;69145;45.544;10.214;2023-05-21T10:16:08;14.25;;;11.23;;
79677;SDS011;69145;45.544;10.214;2023-05-21T10:18:37;15.32;;;11.02;;
79677;SDS011;69145;45.544;10.214;2023-05-21T10:21:06;17.48;;;11.68;;
79677;SDS011;69145;45.544;10.214;2023-05-21T10:23:33;18.42;;;11.70;;
79677;SDS011;69145;45.544;10.214;2023-05-21T10:26:02;16.05;;;12.15;;
79677;SDS011;69145;45.544;10.214;2023-05-21T10:28:29;16.20;;;11.20;;
79677;SDS011;69145;45.544;10.214;2023-05-21T10:30:57;16.48;;;12.73;;
79677;SDS011;69145;45.544;10.214;2023-05-21T10:33:23;16.88;;;12.90;;
79677;SDS011;69145;45.544;10.214;2023-05-21T10:35:50;16.05;;;12.02;;
79677;SDS011;69145;45.544;10.214;2023-05-21T10:38:21;18.83;;;13.85;;
79677;SDS011;69145;45.544;10.214;2023-05-21T10:40:48;15.60;;;12.15;;
79677;SDS011;69145;45.544;10.214;2023-05-21T10:51:44;15.93;;;12.07;;
79677;SDS011;69145;45.544;10.214;2023-05-21T10:59:56;17.52;;;12.38;;
79677;SDS011;69145;45.544;10.214;2023-05-21T11:02:24;15.77;;;11.43;;
79677;SDS011;69145;45.544;10.214;2023-05-21T11:05:00;15.65;;;10.70;;
79677;SDS011;69145;45.544;10.214;2023-05-21T11:10:36;17.38;;;13.25;;
79677;SDS011;69145;45.544;10.214;2023-05-21T11:13:08;15.82;;;11.73;;
79677;SDS011;69145;45.544;10.214;2023-05-21T11:21:04;14.02;;;10.95;;
79677;SDS011;69145;45.544;10.214;2023-05-21T11:29:14;14.38;;;11.45;;
79677;SDS011;69145;45.544;10.214;2023-05-21T11:31:58;17.25;;;11.65;;
79677;SDS011;69145;45.544;10.214;2023-05-21T11:34:36;18.35;;;12.57;;
79677;SDS011;69145;45.544;10.214;2023-05-21T11:39:44;16.65;;;11.90;;
79677;SDS011;69145;45.544;10.214;2023-05-21T11:45:00;17.55;;;14.02;;
79677;SDS011;69145;45.544;10.214;2023-05-21T11:47:29;18.15;;;13.32;;
79677;SDS011;69145;45.544;10.214;2023-05-21T11:49:57;19.88;;;14.90;;
79677;SDS011;69145;45.544;10.214;2023-05-21T11:52:27;17.83;;;13.75;;
79677;SDS011;69145;45.544;10.214;2023-05-21T11:54:53;16.88;;;12.30;;
79677;SDS011;69145;45.544;10.214;2023-05-21T11:57:21;17.40;;;12.88;;
79677;SDS011;69145;45.544;10.214;2023-05-21T12:00:11;17.88;;;14.25;;
79677;SDS011;69145;45.544;10.214;2023-05-21T12:02:42;18.85;;;14.07;;
79677;SDS011;69145;45.544;10.214;2023-05-21T12:05:17;17.48;;;13.00;;
79677;SDS011;69145;45.544;10.214;2023-05-21T12:07:45;16.73;;;12.93;;
79677;SDS011;69145;45.544;10.214;2023-05-21T12:10:15;15.93;;;12.77;;
79677;SDS011;69145;45.544;10.214;2023-05-21T12:12:44;18.05;;;13.40;;
79677;SDS011;69145;45.544;10.214;2023-05-21T12:15:10;17.58;;;13.93;;
79677;SDS011;69145;45.544;10.214;2023-05-21T12:17:37;16.95;;;12.00;;
79677;SDS011;69145;45.544;10.214;2023-05-21T12:20:04;19.30;;;14.82;;
79677;SDS011;69145;45.544;10.214;2023-05-21T12:22:32;16.52;;;12.85;;
79677;SDS011;69145;45.544;10.214;2023-05-21T12:25:00;17.42;;;13.38;;
79677;SDS011;69145;45.544;10.214;2023-05-21T12:27:26;17.65;;;13.93;;
79677;SDS011;69145;45.544;10.214;2023-05-21T12:29:52;15.95;;;13.30;;
79677;SDS011;69145;45.544;10.214;2023-05-21T12:32:18;16.70;;;13.20;;
79677;SDS011;69145;45.544;10.214;2023-05-21T12:34:46;16.98;;;13.30;;
79677;SDS011;69145;45.544;10.214;2023-05-21T12:37:20;18.38;;;13.75;;
79677;SDS011;69145;45.544;10.214;2023-05-21T12:39:51;17.52;;;13.65;;
79677;SDS011;69145;45.544;10.214;2023-05-21T12:42:25;19.02;;;13.73;;
79677;SDS011;69145;45.544;10.214;2023-05-21T12:44:55;16.58;;;13.30;;
79677;SDS011;69145;45.544;10.214;2023-05-21T12:47:22;16.40;;;13.98;;
79677;SDS011;69145;45.544;10.214;2023-05-21T12:49:49;17.30;;;13.00;;
79677;SDS011;69145;45.544;10.214;2023-05-21T12:52:17;17.17;;;13.70;;
79677;SDS011;69145;45.544;10.214;2023-05-21T12:54:45;16.80;;;12.75;;
79677;SDS011;69145;45.544;10.214;2023-05-21T12:57:15;18.45;;;14.32;;
79677;SDS011;69145;45.544;10.214;2023-05-21T12:59:57;16.98;;;13.07;;
79677;SDS011;69145;45.544;10.214;2023-05-21T13:02:34;17.23;;;13.35;;
79677;SDS011;69145;45.544;10.214;2023-05-21T13:05:04;18.88;;;13.75;;
79677;SDS011;69145;45.544;10.214;2023-05-21T13:07:31;18.27;;;12.93;;
79677;SDS011;69145;45.544;10.214;2023-05-21T13:10:02;18.15;;;13.65;;
79677;SDS011;69145;45.544;10.214;2023-05-21T13:12:31;17.45;;;13.52;;
79677;SDS011;69145;45.544;10.214;2023-05-21T13:14:58;16.60;;;13.57;;
79677;SDS011;69145;45.544;10.214;2023-05-21T13:17:26;17.60;;;14.02;;
79677;SDS011;69145;45.544;10.214;2023-05-21T13:22:33;18.33;;;13.52;;
79677;SDS011;69145;45.544;10.214;2023-05-21T13:27:28;17.40;;;12.77;;
79677;SDS011;69145;45.544;10.214;2023-05-21T13:29:54;17.25;;;13.35;;
79677;SDS011;69145;45.544;10.214;2023-05-21T13:32:25;15.68;;;11.73;;
79677;SDS011;69145;45.544;10.214;2023-05-21T13:34:50;18.40;;;13.25;;
79677;SDS011;69145;45.544;10.214;2023-05-21T13:37:16;17.55;;;13.18;;
79677;SDS011;69145;45.544;10.214;2023-05-21T13:39:41;18.08;;;13.95;;
79677;SDS011;69145;45.544;10.214;2023-05-21T13:42:07;18.52;;;13.32;;
79677;SDS011;69145;45.544;10.214;2023-05-21T13:44:33;15.50;;;12.05;;
79677;SDS011;69145;45.544;10.214;2023-05-21T13:47:04;17.02;;;13.38;;
79677;SDS011;69145;45.544;10.214;2023-05-21T13:49:30;16.60;;;13.20;;
79677;SDS011;69145;45.544;10.214;2023-05-21T13:51:55;17.02;;;12.95;;
79677;SDS011;69145;45.544;10.214;2023-05-21T13:54:25;17.85;;;13.68;;
79677;SDS011;69145;45.544;10.214;2023-05-21T13:56:51;16.33;;;12.82;;
79677;SDS011;69145;45.544;10.214;2023-05-21T13:59:16;16.40;;;12.65;;
79677;SDS011;69145;45.544;10.214;2023-05-21T14:01:45;17.63;;;12.57;;
79677;SDS011;69145;45.544;10.214;2023-05-21T14:04:11;17.13;;;13.00;;
79677;SDS011;69145;45.544;10.214;2023-05-21T14:06:37;15.85;;;11.85;;
79677;SDS011;69145;45.544;10.214;2023-05-21T14:09:02;15.57;;;11.50;;
79677;SDS011;69145;45.544;10.214;2023-05-21T14:11:29;16.10;;;12.13;;
79677;SDS011;69145;45.544;10.214;2023-05-21T14:13:58;15.68;;;11.90;;
79677;SDS011;69145;45.544;10.214;2023-05-21T14:16:27;14.80;;;12.02;;
79677;SDS011;69145;45.544;10.214;2023-05-21T14:18:53;15.25;;;10.98;;
79677;SDS011;69145;45.544;10.214;2023-05-21T14:21:19;17.40;;;12.13;;
79677;SDS011;69145;45.544;10.214;2023-05-21T14:23:45;14.23;;;10.98;;
79677;SDS011;69145;45.544;10.214;2023-05-21T14:26:11;14.50;;;11.50;;
79677;SDS011;69145;45.544;10.214;2023-05-21T14:28:36;15.53;;;13.17;;
79677;SDS011;69145;45.544;10.214;2023-05-21T14:31:02;14.35;;;11.18;;
79677;SDS011;69145;45.544;10.214;2023-05-21T14:33:29;15.40;;;11.27;;
79677;SDS011;69145;45.544;10.214;2023-05-21T14:35:55;14.30;;;11.05;;
79677;SDS011;69145;45.544;10.214;2023-05-21T14:38:21;13.82;;;10.85;;
79677;SDS011;69145;45.544;10.214;2023-05-21T14:40:46;15.00;;;11.68;;
79677;SDS011;69145;45.544;10.214;2023-05-21T14:43:14;12.02;;;9.68;;
79677;SDS011;69145;45.544;10.214;2023-05-21T14:45:40;16.67;;;10.30;;
79677;SDS011;69145;45.544;10.214;2023-05-21T14:48:05;13.48;;;10.80;;
79677;SDS011;69145;45.544;10.214;2023-05-21T14:50:34;12.85;;;10.38;;
79677;SDS011;69145;45.544;10.214;2023-05-21T14:53:03;12.48;;;10.30;;
79677;SDS011;69145;45.544;10.214;2023-05-21T14:55:30;14.25;;;11.10;;
79677;SDS011;69145;45.544;10.214;2023-05-21T14:57:58;14.90;;;11.05;;
79677;SDS011;69145;45.544;10.214;2023-05-21T15:00:25;13.40;;;11.15;;
79677;SDS011;69145;45.544;10.214;2023-05-21T15:02:50;13.82;;;10.73;;
79677;SDS011;69145;45.544;10.214;2023-05-21T15:05:16;11.73;;;10.05;;
79677;SDS011;69145;45.544;10.214;2023-05-21T15:07:42;13.05;;;9.40;;
79677;SDS011;69145;45.544;10.214;2023-05-21T15:10:08;15.02;;;10.77;;